sensor_id;sensor_type;location;lat;lon;timestamp;temperature;humidity
42989;DHT22;28622;43.716;20.668;2022-10-30T00:02:05;8.90;99.90
42989;DHT22;28622;43.716;20.668;2022-10-30T00:04:31;8.90;99.90
42989;DHT22;28622;43.716;20.668;2022-10-30T00:06:57;8.90;99.90
42989;DHT22;28622;43.716;20.668;2022-10-30T00:09:23;9.00;99.90
42989;DHT22;28622;43.716;20.668;2022-10-30T00:11:48;9.00;99.90
42989;DHT22;28622;43.716;20.668;2022-10-30T00:14:14;8.70;99.90
42989;DHT22;28622;43.716;20.668;2022-10-30T00:16:40;8.80;99.90
42989;DHT22;28622;43.716;20.668;2022-10-30T00:19:06;8.90;99.90
42989;DHT22;28622;43.716;20.668;2022-10-30T00:21:32;9.00;99.90
42989;DHT22;28622;43.716;20.668;2022-10-30T00:23:58;9.00;99.90
42989;DHT22;28622;43.716;20.668;2022-10-30T00:26:23;9.00;99.90
42989;DHT22;28622;43.716;20.668;2022-10-30T00:28:54;9.00;99.90
42989;DHT22;28622;43.716;20.668;2022-10-30T00:31:20;9.00;99.90
42989;DHT22;28622;43.716;20.668;2022-10-30T00:33:53;9.00;99.90
42989;DHT22;28622;43.716;20.668;2022-10-30T00:36:20;8.90;99.90
42989;DHT22;28622;43.716;20.668;2022-10-30T00:38:55;8.90;99.90
42989;DHT22;28622;43.716;20.668;2022-10-30T00:41:23;8.80;99.90
42989;DHT22;28622;43.716;20.668;2022-10-30T00:43:49;8.80;99.90
42989;DHT22;28622;43.716;20.668;2022-10-30T00:49:14;8.80;99.90
42989;DHT22;28622;43.716;20.668;2022-10-30T00:51:44;8.70;99.90
42989;DHT22;28622;43.716;20.668;2022-10-30T00:54:14;8.70;99.90
42989;DHT22;28622;43.716;20.668;2022-10-30T00:56:41;8.70;99.90
42989;DHT22;28622;43.716;20.668;2022-10-30T00:59:12;8.60;99.90
42989;DHT22;28622;43.716;20.668;2022-10-30T01:01:42;8.60;99.90
42989;DHT22;28622;43.716;20.668;2022-10-30T01:04:10;8.50;99.90
42989;DHT22;28622;43.716;20.668;2022-10-30T01:06:38;8.50;99.90
42989;DHT22;28622;43.716;20.668;2022-10-30T01:09:06;8.50;99.90
42989;DHT22;28622;43.716;20.668;2022-10-30T01:11:32;8.60;99.90
42989;DHT22;28622;43.716;20.668;2022-10-30T01:16:54;8.30;99.90
42989;DHT22;28622;43.716;20.668;2022-10-30T01:25:19;8.10;99.90
42989;DHT22;28622;43.716;20.668;2022-10-30T01:36:07;8.00;99.90
42989;DHT22;28622;43.716;20.668;2022-10-30T01:39:19;8.00;99.90
42989;DHT22;28622;43.716;20.668;2022-10-30T01:41:45;8.00;99.90
42989;DHT22;28622;43.716;20.668;2022-10-30T01:44:27;8.00;99.90
42989;DHT22;28622;43.716;20.668;2022-10-30T01:52:54;8.00;99.90
42989;DHT22;28622;43.716;20.668;2022-10-30T01:55:27;8.10;99.90
42989;DHT22;28622;43.716;20.668;2022-10-30T02:00:38;8.00;99.90
42989;DHT22;28622;43.716;20.668;2022-10-30T02:03:05;8.00;99.90
42989;DHT22;28622;43.716;20.668;2022-10-30T02:05:40;7.90;99.90
42989;DHT22;28622;43.716;20.668;2022-10-30T02:08:06;8.00;99.90
42989;DHT22;28622;43.716;20.668;2022-10-30T02:10:34;8.00;99.90
42989;DHT22;28622;43.716;20.668;2022-10-30T02:13:01;7.90;99.90
42989;DHT22;28622;43.716;20.668;2022-10-30T02:15:27;7.90;99.90
42989;DHT22;28622;43.716;20.668;2022-10-30T02:17:54;8.00;99.90
42989;DHT22;28622;43.716;20.668;2022-10-30T02:20:21;8.00;99.90
42989;DHT22;28622;43.716;20.668;2022-10-30T02:22:47;7.90;99.90
42989;DHT22;28622;43.716;20.668;2022-10-30T02:25:13;7.90;99.90
42989;DHT22;28622;43.716;20.668;2022-10-30T02:27:40;7.90;99.90
42989;DHT22;28622;43.716;20.668;2022-10-30T02:30:06;7.90;99.90
42989;DHT22;28622;43.716;20.668;2022-10-30T02:32:32;7.90;99.90
42989;DHT22;28622;43.716;20.668;2022-10-30T02:34:58;7.90;99.90
42989;DHT22;28622;43.716;20.668;2022-10-30T02:37:24;7.80;99.90
42989;DHT22;28622;43.716;20.668;2022-10-30T02:39:50;8.00;99.90
42989;DHT22;28622;43.716;20.668;2022-10-30T02:42:16;8.00;99.90
42989;DHT22;28622;43.716;20.668;2022-10-30T02:44:42;8.00;99.90
42989;DHT22;28622;43.716;20.668;2022-10-30T02:47:08;8.00;99.90
42989;DHT22;28622;43.716;20.668;2022-10-30T02:49:33;8.00;99.90
42989;DHT22;28622;43.716;20.668;2022-10-30T02:51:59;7.90;99.90
42989;DHT22;28622;43.716;20.668;2022-10-30T02:54:25;7.80;99.90
42989;DHT22;28622;43.716;20.668;2022-10-30T02:56:51;7.70;99.90
42989;DHT22;28622;43.716;20.668;2022-10-30T02:59:16;7.70;99.90
42989;DHT22;28622;43.716;20.668;2022-10-30T03:01:42;7.60;99.90
42989;DHT22;28622;43.716;20.668;2022-10-30T03:04:08;7.50;99.90
42989;DHT22;28622;43.716;20.668;2022-10-30T03:09:00;7.40;99.90
42989;DHT22;28622;43.716;20.668;2022-10-30T03:11:26;7.40;99.90
42989;DHT22;28622;43.716;20.668;2022-10-30T03:13:51;7.30;99.90
42989;DHT22;28622;43.716;20.668;2022-10-30T03:16:22;7.40;99.90
42989;DHT22;28622;43.716;20.668;2022-10-30T03:18:49;7.50;99.90
42989;DHT22;28622;43.716;20.668;2022-10-30T03:21:19;7.30;99.90
42989;DHT22;28622;43.716;20.668;2022-10-30T03:23:45;6.40;99.90
42989;DHT22;28622;43.716;20.668;2022-10-30T03:26:11;6.80;99.90
42989;DHT22;28622;43.716;20.668;2022-10-30T03:28:37;7.50;99.90
42989;DHT22;28622;43.716;20.668;2022-10-30T03:31:12;7.70;99.90
42989;DHT22;28622;43.716;20.668;2022-10-30T03:33:38;7.50;99.90
42989;DHT22;28622;43.716;20.668;2022-10-30T03:36:05;7.60;99.90
42989;DHT22;28622;43.716;20.668;2022-10-30T03:38:31;7.60;99.90
42989;DHT22;28622;43.716;20.668;2022-10-30T03:40:57;7.60;99.90
42989;DHT22;28622;43.716;20.668;2022-10-30T03:43:23;7.30;99.90
42989;DHT22;28622;43.716;20.668;2022-10-30T03:45:51;7.60;99.90
42989;DHT22;28622;43.716;20.668;2022-10-30T03:48:18;7.60;99.90
42989;DHT22;28622;43.716;20.668;2022-10-30T03:50:45;7.20;99.90
42989;DHT22;28622;43.716;20.668;2022-10-30T03:53:11;7.30;99.90
42989;DHT22;28622;43.716;20.668;2022-10-30T03:55:37;7.50;99.90
42989;DHT22;28622;43.716;20.668;2022-10-30T03:58:04;7.50;99.90
42989;DHT22;28622;43.716;20.668;2022-10-30T04:00:31;7.50;99.90
42989;DHT22;28622;43.716;20.668;2022-10-30T04:02:57;7.60;99.90
42989;DHT22;28622;43.716;20.668;2022-10-30T04:05:23;7.70;99.90
42989;DHT22;28622;43.716;20.668;2022-10-30T04:07:59;7.70;99.90
42989;DHT22;28622;43.716;20.668;2022-10-30T04:10:25;7.70;99.90
42989;DHT22;28622;43.716;20.668;2022-10-30T04:12:51;7.70;99.90
42989;DHT22;28622;43.716;20.668;2022-10-30T04:15:19;7.60;99.90
42989;DHT22;28622;43.716;20.668;2022-10-30T04:17:49;7.70;99.90
42989;DHT22;28622;43.716;20.668;2022-10-30T04:20:16;7.50;99.90
42989;DHT22;28622;43.716;20.668;2022-10-30T04:22:42;7.50;99.90
42989;DHT22;28622;43.716;20.668;2022-10-30T04:25:08;7.50;99.90
42989;DHT22;28622;43.716;20.668;2022-10-30T04:27:41;7.50;99.90
42989;DHT22;28622;43.716;20.668;2022-10-30T04:30:08;7.40;99.90
42989;DHT22;28622;43.716;20.668;2022-10-30T04:32:34;7.20;99.90
42989;DHT22;28622;43.716;20.668;2022-10-30T04:35:00;7.30;99.90
42989;DHT22;28622;43.716;20.668;2022-10-30T04:37:28;7.10;99.90
42989;DHT22;28622;43.716;20.668;2022-10-30T04:39:54;7.10;99.90
42989;DHT22;28622;43.716;20.668;2022-10-30T04:42:19;7.20;99.90
42989;DHT22;28622;43.716;20.668;2022-10-30T04:44:45;7.10;99.90
42989;DHT22;28622;43.716;20.668;2022-10-30T04:47:11;7.00;99.90
42989;DHT22;28622;43.716;20.668;2022-10-30T04:49:36;7.00;99.90
42989;DHT22;28622;43.716;20.668;2022-10-30T04:52:02;7.00;99.90
42989;DHT22;28622;43.716;20.668;2022-10-30T04:54:28;7.10;99.90
42989;DHT22;28622;43.716;20.668;2022-10-30T04:56:54;7.10;99.90
42989;DHT22;28622;43.716;20.668;2022-10-30T04:59:19;7.00;99.90
42989;DHT22;28622;43.716;20.668;2022-10-30T05:01:45;7.00;99.90
42989;DHT22;28622;43.716;20.668;2022-10-30T05:04:11;7.00;99.90
42989;DHT22;28622;43.716;20.668;2022-10-30T05:06:37;7.10;99.90
42989;DHT22;28622;43.716;20.668;2022-10-30T05:09:03;7.10;99.90
42989;DHT22;28622;43.716;20.668;2022-10-30T05:11:28;7.10;99.90
42989;DHT22;28622;43.716;20.668;2022-10-30T05:13:55;7.00;99.90
42989;DHT22;28622;43.716;20.668;2022-10-30T05:16:20;7.10;99.90
42989;DHT22;28622;43.716;20.668;2022-10-30T05:18:46;7.10;99.90
42989;DHT22;28622;43.716;20.668;2022-10-30T05:21:12;7.10;99.90
42989;DHT22;28622;43.716;20.668;2022-10-30T05:23:38;7.10;99.90
42989;DHT22;28622;43.716;20.668;2022-10-30T05:26:03;7.20;99.90
42989;DHT22;28622;43.716;20.668;2022-10-30T05:28:29;7.20;99.90
42989;DHT22;28622;43.716;20.668;2022-10-30T05:30:55;7.20;99.90
42989;DHT22;28622;43.716;20.668;2022-10-30T05:33:21;7.30;99.90
42989;DHT22;28622;43.716;20.668;2022-10-30T05:35:46;7.40;99.90
42989;DHT22;28622;43.716;20.668;2022-10-30T05:38:13;7.40;99.90
42989;DHT22;28622;43.716;20.668;2022-10-30T05:40:38;7.50;99.90
42989;DHT22;28622;43.716;20.668;2022-10-30T05:43:04;7.50;99.90
42989;DHT22;28622;43.716;20.668;2022-10-30T05:45:31;7.50;99.90
42989;DHT22;28622;43.716;20.668;2022-10-30T05:47:58;7.60;99.90
42989;DHT22;28622;43.716;20.668;2022-10-30T05:50:25;7.60;99.90
42989;DHT22;28622;43.716;20.668;2022-10-30T05:53:17;7.60;99.90
42989;DHT22;28622;43.716;20.668;2022-10-30T05:55:43;7.70;99.90
42989;DHT22;28622;43.716;20.668;2022-10-30T05:58:08;7.70;99.90
42989;DHT22;28622;43.716;20.668;2022-10-30T06:00:35;8.00;99.90
42989;DHT22;28622;43.716;20.668;2022-10-30T06:03:02;7.90;99.90
42989;DHT22;28622;43.716;20.668;2022-10-30T06:05:30;7.90;99.90
42989;DHT22;28622;43.716;20.668;2022-10-30T06:07:56;8.10;99.90
42989;DHT22;28622;43.716;20.668;2022-10-30T06:10:25;8.10;99.90
42989;DHT22;28622;43.716;20.668;2022-10-30T06:13:05;8.10;99.90
42989;DHT22;28622;43.716;20.668;2022-10-30T06:17:57;8.50;99.90
42989;DHT22;28622;43.716;20.668;2022-10-30T06:20:26;8.50;99.90
42989;DHT22;28622;43.716;20.668;2022-10-30T06:23:00;8.50;99.90
42989;DHT22;28622;43.716;20.668;2022-10-30T06:27:53;8.80;99.90
42989;DHT22;28622;43.716;20.668;2022-10-30T06:32:46;9.40;99.90
42989;DHT22;28622;43.716;20.668;2022-10-30T06:37:44;9.90;99.90
42989;DHT22;28622;43.716;20.668;2022-10-30T06:42:44;10.60;99.90
42989;DHT22;28622;43.716;20.668;2022-10-30T06:45:11;10.80;99.90
42989;DHT22;28622;43.716;20.668;2022-10-30T06:47:38;11.00;99.90
42989;DHT22;28622;43.716;20.668;2022-10-30T06:52:31;11.30;99.90
42989;DHT22;28622;43.716;20.668;2022-10-30T06:54:57;11.40;99.90
42989;DHT22;28622;43.716;20.668;2022-10-30T06:57:22;11.60;99.90
42989;DHT22;28622;43.716;20.668;2022-10-30T06:59:48;11.90;99.90
42989;DHT22;28622;43.716;20.668;2022-10-30T07:02:14;12.10;99.90
42989;DHT22;28622;43.716;20.668;2022-10-30T07:04:40;12.50;99.90
42989;DHT22;28622;43.716;20.668;2022-10-30T07:07:06;12.60;99.90
42989;DHT22;28622;43.716;20.668;2022-10-30T07:09:31;12.80;99.90
42989;DHT22;28622;43.716;20.668;2022-10-30T07:11:57;13.00;99.90
42989;DHT22;28622;43.716;20.668;2022-10-30T07:14:23;13.30;99.90
42989;DHT22;28622;43.716;20.668;2022-10-30T07:16:49;13.50;99.90
42989;DHT22;28622;43.716;20.668;2022-10-30T07:19:15;13.50;99.90
42989;DHT22;28622;43.716;20.668;2022-10-30T07:21:41;13.60;99.90
42989;DHT22;28622;43.716;20.668;2022-10-30T07:24:07;13.50;99.90
42989;DHT22;28622;43.716;20.668;2022-10-30T07:26:33;13.40;99.90
42989;DHT22;28622;43.716;20.668;2022-10-30T07:29:03;13.30;99.90
42989;DHT22;28622;43.716;20.668;2022-10-30T07:31:29;13.10;99.90
42989;DHT22;28622;43.716;20.668;2022-10-30T07:33:54;13.00;99.90
42989;DHT22;28622;43.716;20.668;2022-10-30T07:36:20;12.90;99.90
42989;DHT22;28622;43.716;20.668;2022-10-30T07:38:50;12.80;99.90
42989;DHT22;28622;43.716;20.668;2022-10-30T07:41:17;12.70;99.90
42989;DHT22;28622;43.716;20.668;2022-10-30T07:43:43;12.80;99.90
42989;DHT22;28622;43.716;20.668;2022-10-30T07:46:08;13.00;99.90
42989;DHT22;28622;43.716;20.668;2022-10-30T07:48:34;13.00;99.90
42989;DHT22;28622;43.716;20.668;2022-10-30T07:51:00;13.10;99.90
42989;DHT22;28622;43.716;20.668;2022-10-30T07:53:26;13.00;99.90
42989;DHT22;28622;43.716;20.668;2022-10-30T07:55:52;13.00;99.90
42989;DHT22;28622;43.716;20.668;2022-10-30T07:58:18;13.00;99.90
42989;DHT22;28622;43.716;20.668;2022-10-30T08:00:44;13.10;99.90
42989;DHT22;28622;43.716;20.668;2022-10-30T08:03:10;13.30;99.90
42989;DHT22;28622;43.716;20.668;2022-10-30T08:05:37;13.50;99.90
42989;DHT22;28622;43.716;20.668;2022-10-30T08:08:02;13.70;99.90
42989;DHT22;28622;43.716;20.668;2022-10-30T08:10:28;13.80;99.90
42989;DHT22;28622;43.716;20.668;2022-10-30T08:12:54;13.80;99.90
42989;DHT22;28622;43.716;20.668;2022-10-30T08:17:47;14.00;99.90
42989;DHT22;28622;43.716;20.668;2022-10-30T08:20:16;14.00;99.90
42989;DHT22;28622;43.716;20.668;2022-10-30T08:22:49;14.10;99.90
42989;DHT22;28622;43.716;20.668;2022-10-30T08:25:16;14.20;99.90
42989;DHT22;28622;43.716;20.668;2022-10-30T08:30:16;14.10;99.90
42989;DHT22;28622;43.716;20.668;2022-10-30T08:32:41;14.10;99.90
42989;DHT22;28622;43.716;20.668;2022-10-30T08:35:08;14.10;99.90
42989;DHT22;28622;43.716;20.668;2022-10-30T08:37:33;14.10;99.90
42989;DHT22;28622;43.716;20.668;2022-10-30T08:39:59;14.30;99.90
42989;DHT22;28622;43.716;20.668;2022-10-30T08:42:25;14.40;99.90
42989;DHT22;28622;43.716;20.668;2022-10-30T08:44:51;14.50;99.90
42989;DHT22;28622;43.716;20.668;2022-10-30T08:47:18;14.70;99.90
42989;DHT22;28622;43.716;20.668;2022-10-30T08:49:43;14.70;99.90
42989;DHT22;28622;43.716;20.668;2022-10-30T08:52:09;15.10;99.90
42989;DHT22;28622;43.716;20.668;2022-10-30T08:54:35;15.20;99.90
42989;DHT22;28622;43.716;20.668;2022-10-30T08:57:01;15.10;99.90
42989;DHT22;28622;43.716;20.668;2022-10-30T08:59:27;15.20;99.90
42989;DHT22;28622;43.716;20.668;2022-10-30T09:01:52;15.30;99.90
42989;DHT22;28622;43.716;20.668;2022-10-30T09:04:18;15.60;99.90
42989;DHT22;28622;43.716;20.668;2022-10-30T09:06:44;15.80;99.90
42989;DHT22;28622;43.716;20.668;2022-10-30T09:09:10;15.90;99.90
42989;DHT22;28622;43.716;20.668;2022-10-30T09:11:36;16.00;99.90
42989;DHT22;28622;43.716;20.668;2022-10-30T09:14:02;16.20;99.90
42989;DHT22;28622;43.716;20.668;2022-10-30T09:16:28;16.10;99.90
42989;DHT22;28622;43.716;20.668;2022-10-30T09:18:53;16.10;99.90
42989;DHT22;28622;43.716;20.668;2022-10-30T09:21:19;16.20;99.90
42989;DHT22;28622;43.716;20.668;2022-10-30T09:23:45;16.40;99.90
42989;DHT22;28622;43.716;20.668;2022-10-30T09:26:11;16.60;99.90
42989;DHT22;28622;43.716;20.668;2022-10-30T09:31:03;17.30;99.90
42989;DHT22;28622;43.716;20.668;2022-10-30T09:33:28;17.40;99.90
42989;DHT22;28622;43.716;20.668;2022-10-30T09:35:54;17.50;99.90
42989;DHT22;28622;43.716;20.668;2022-10-30T09:38:20;17.70;99.90
42989;DHT22;28622;43.716;20.668;2022-10-30T09:54:43;17.80;99.90
42989;DHT22;28622;43.716;20.668;2022-10-30T10:00:35;17.80;99.90
42989;DHT22;28622;43.716;20.668;2022-10-30T10:03:04;17.80;99.90
42989;DHT22;28622;43.716;20.668;2022-10-30T10:06:00;17.80;99.90
42989;DHT22;28622;43.716;20.668;2022-10-30T10:08:42;17.70;99.90
42989;DHT22;28622;43.716;20.668;2022-10-30T10:11:13;17.80;99.90
42989;DHT22;28622;43.716;20.668;2022-10-30T10:13:47;17.70;99.90
42989;DHT22;28622;43.716;20.668;2022-10-30T10:16:35;17.70;99.90
42989;DHT22;28622;43.716;20.668;2022-10-30T10:19:19;17.70;99.90
42989;DHT22;28622;43.716;20.668;2022-10-30T10:22:28;17.60;99.90
42989;DHT22;28622;43.716;20.668;2022-10-30T10:24:51;17.70;99.90
42989;DHT22;28622;43.716;20.668;2022-10-30T10:30:04;17.90;99.90
42989;DHT22;28622;43.716;20.668;2022-10-30T10:41:15;18.40;99.10
42989;DHT22;28622;43.716;20.668;2022-10-30T10:52:10;18.40;98.60
42989;DHT22;28622;43.716;20.668;2022-10-30T10:55:04;18.60;98.50
42989;DHT22;28622;43.716;20.668;2022-10-30T10:57:33;18.60;99.20
42989;DHT22;28622;43.716;20.668;2022-10-30T11:00:16;18.50;99.10
42989;DHT22;28622;43.716;20.668;2022-10-30T11:03:05;18.50;99.20
42989;DHT22;28622;43.716;20.668;2022-10-30T11:05:45;18.50;98.60
42989;DHT22;28622;43.716;20.668;2022-10-30T11:08:31;18.60;98.50
42989;DHT22;28622;43.716;20.668;2022-10-30T11:11:05;18.70;98.80
42989;DHT22;28622;43.716;20.668;2022-10-30T11:13:38;18.70;98.50
42989;DHT22;28622;43.716;20.668;2022-10-30T11:18:33;18.60;98.40
42989;DHT22;28622;43.716;20.668;2022-10-30T11:21:09;18.70;97.90
42989;DHT22;28622;43.716;20.668;2022-10-30T11:23:48;18.90;97.90
42989;DHT22;28622;43.716;20.668;2022-10-30T11:29:26;19.10;98.00
42989;DHT22;28622;43.716;20.668;2022-10-30T11:32:04;19.30;97.80
42989;DHT22;28622;43.716;20.668;2022-10-30T11:34:35;19.50;98.00
42989;DHT22;28622;43.716;20.668;2022-10-30T11:37:01;19.50;97.50
42989;DHT22;28622;43.716;20.668;2022-10-30T11:39:32;19.60;97.50
42989;DHT22;28622;43.716;20.668;2022-10-30T11:42:16;19.50;97.00
42989;DHT22;28622;43.716;20.668;2022-10-30T11:47:11;19.80;96.70
42989;DHT22;28622;43.716;20.668;2022-10-30T11:49:49;19.80;96.30
42989;DHT22;28622;43.716;20.668;2022-10-30T11:52:19;19.70;96.30
42989;DHT22;28622;43.716;20.668;2022-10-30T11:54:57;20.00;96.40
42989;DHT22;28622;43.716;20.668;2022-10-30T11:57:40;20.30;96.60
42989;DHT22;28622;43.716;20.668;2022-10-30T12:02:42;20.40;94.80
42989;DHT22;28622;43.716;20.668;2022-10-30T12:11:00;21.00;94.60
42989;DHT22;28622;43.716;20.668;2022-10-30T12:13:32;21.50;93.50
42989;DHT22;28622;43.716;20.668;2022-10-30T12:16:16;21.40;93.20
42989;DHT22;28622;43.716;20.668;2022-10-30T12:19:06;21.20;92.80
42989;DHT22;28622;43.716;20.668;2022-10-30T12:21:42;21.60;93.20
42989;DHT22;28622;43.716;20.668;2022-10-30T12:24:18;21.80;92.60
42989;DHT22;28622;43.716;20.668;2022-10-30T12:26:48;22.10;91.90
42989;DHT22;28622;43.716;20.668;2022-10-30T12:29:17;22.00;91.60
42989;DHT22;28622;43.716;20.668;2022-10-30T12:32:04;22.00;92.60
42989;DHT22;28622;43.716;20.668;2022-10-30T12:34:52;22.10;92.00
42989;DHT22;28622;43.716;20.668;2022-10-30T12:37:35;22.10;91.80
42989;DHT22;28622;43.716;20.668;2022-10-30T12:43:16;22.60;91.60
42989;DHT22;28622;43.716;20.668;2022-10-30T12:45:47;22.80;90.80
42989;DHT22;28622;43.716;20.668;2022-10-30T12:48:24;23.10;90.60
42989;DHT22;28622;43.716;20.668;2022-10-30T12:51:05;23.40;88.60
42989;DHT22;28622;43.716;20.668;2022-10-30T12:54:20;23.90;87.20
42989;DHT22;28622;43.716;20.668;2022-10-30T12:56:44;24.10;86.70
42989;DHT22;28622;43.716;20.668;2022-10-30T12:59:20;23.80;84.70
42989;DHT22;28622;43.716;20.668;2022-10-30T13:02:00;23.70;84.70
42989;DHT22;28622;43.716;20.668;2022-10-30T13:04:36;23.70;85.80
42989;DHT22;28622;43.716;20.668;2022-10-30T13:07:22;23.70;87.50
42989;DHT22;28622;43.716;20.668;2022-10-30T13:12:41;23.80;85.10
42989;DHT22;28622;43.716;20.668;2022-10-30T13:15:32;23.70;83.30
42989;DHT22;28622;43.716;20.668;2022-10-30T13:18:21;24.00;85.10
42989;DHT22;28622;43.716;20.668;2022-10-30T13:21:12;24.20;85.10
42989;DHT22;28622;43.716;20.668;2022-10-30T13:24:00;24.30;81.90
42989;DHT22;28622;43.716;20.668;2022-10-30T13:31:43;24.80;82.20
42989;DHT22;28622;43.716;20.668;2022-10-30T13:34:32;24.90;80.70
42989;DHT22;28622;43.716;20.668;2022-10-30T13:39:57;25.10;79.60
42989;DHT22;28622;43.716;20.668;2022-10-30T13:45:35;24.80;78.60
42989;DHT22;28622;43.716;20.668;2022-10-30T13:53:19;24.30;79.90
42989;DHT22;28622;43.716;20.668;2022-10-30T13:55:48;24.20;79.40
42989;DHT22;28622;43.716;20.668;2022-10-30T14:03:52;23.50;79.30
42989;DHT22;28622;43.716;20.668;2022-10-30T14:06:44;23.30;80.60
42989;DHT22;28622;43.716;20.668;2022-10-30T14:14:46;22.70;81.70
42989;DHT22;28622;43.716;20.668;2022-10-30T14:17:15;22.50;81.90
42989;DHT22;28622;43.716;20.668;2022-10-30T14:22:33;22.30;92.00
42989;DHT22;28622;43.716;20.668;2022-10-30T14:25:01;22.00;97.20
42989;DHT22;28622;43.716;20.668;2022-10-30T14:27:31;21.60;83.10
42989;DHT22;28622;43.716;20.668;2022-10-30T14:29:58;21.50;83.70
42989;DHT22;28622;43.716;20.668;2022-10-30T14:39:49;20.90;85.90
42989;DHT22;28622;43.716;20.668;2022-10-30T14:42:35;20.80;86.10
42989;DHT22;28622;43.716;20.668;2022-10-30T14:47:51;20.60;87.10
42989;DHT22;28622;43.716;20.668;2022-10-30T14:55:24;20.30;88.50
42989;DHT22;28622;43.716;20.668;2022-10-30T14:58:14;20.30;89.10
42989;DHT22;28622;43.716;20.668;2022-10-30T15:00:42;20.20;89.00
42989;DHT22;28622;43.716;20.668;2022-10-30T15:03:36;20.10;89.40
42989;DHT22;28622;43.716;20.668;2022-10-30T15:09:07;19.90;91.00
42989;DHT22;28622;43.716;20.668;2022-10-30T15:14:39;19.80;92.10
42989;DHT22;28622;43.716;20.668;2022-10-30T15:17:18;19.70;92.30
42989;DHT22;28622;43.716;20.668;2022-10-30T15:19:46;19.40;92.10
42989;DHT22;28622;43.716;20.668;2022-10-30T15:22:17;19.20;91.70
42989;DHT22;28622;43.716;20.668;2022-10-30T15:24:44;19.20;92.60
42989;DHT22;28622;43.716;20.668;2022-10-30T15:27:17;19.20;93.00
42989;DHT22;28622;43.716;20.668;2022-10-30T15:29:49;19.10;93.40
42989;DHT22;28622;43.716;20.668;2022-10-30T15:32:21;19.00;93.70
42989;DHT22;28622;43.716;20.668;2022-10-30T15:34:59;18.90;93.50
42989;DHT22;28622;43.716;20.668;2022-10-30T15:37:26;18.80;94.40
42989;DHT22;28622;43.716;20.668;2022-10-30T15:40:18;18.70;94.80
42989;DHT22;28622;43.716;20.668;2022-10-30T15:42:47;18.60;95.00
42989;DHT22;28622;43.716;20.668;2022-10-30T15:45:29;18.50;94.80
42989;DHT22;28622;43.716;20.668;2022-10-30T15:48:05;18.30;95.10
42989;DHT22;28622;43.716;20.668;2022-10-30T15:50:33;18.20;95.30
42989;DHT22;28622;43.716;20.668;2022-10-30T15:52:59;18.10;96.20
42989;DHT22;28622;43.716;20.668;2022-10-30T15:55:28;17.90;96.30
42989;DHT22;28622;43.716;20.668;2022-10-30T15:57:57;17.80;95.90
42989;DHT22;28622;43.716;20.668;2022-10-30T16:00:26;17.70;96.30
42989;DHT22;28622;43.716;20.668;2022-10-30T16:02:59;17.50;96.60
42989;DHT22;28622;43.716;20.668;2022-10-30T16:05:26;17.40;97.30
42989;DHT22;28622;43.716;20.668;2022-10-30T16:07:55;17.20;97.80
42989;DHT22;28622;43.716;20.668;2022-10-30T16:10:23;17.00;97.60
42989;DHT22;28622;43.716;20.668;2022-10-30T16:12:49;16.90;97.60
42989;DHT22;28622;43.716;20.668;2022-10-30T16:15:43;16.80;97.70
42989;DHT22;28622;43.716;20.668;2022-10-30T16:18:21;16.70;98.30
42989;DHT22;28622;43.716;20.668;2022-10-30T16:20:50;16.70;99.00
42989;DHT22;28622;43.716;20.668;2022-10-30T16:23:17;16.60;99.10
42989;DHT22;28622;43.716;20.668;2022-10-30T16:25:44;16.50;99.30
42989;DHT22;28622;43.716;20.668;2022-10-30T16:28:33;16.50;99.40
42989;DHT22;28622;43.716;20.668;2022-10-30T16:31:07;16.50;99.80
42989;DHT22;28622;43.716;20.668;2022-10-30T16:33:40;16.40;99.90
42989;DHT22;28622;43.716;20.668;2022-10-30T16:36:08;16.30;99.90
42989;DHT22;28622;43.716;20.668;2022-10-30T16:38:37;16.20;99.90
42989;DHT22;28622;43.716;20.668;2022-10-30T16:41:08;16.10;99.90
42989;DHT22;28622;43.716;20.668;2022-10-30T16:43:39;16.10;99.90
42989;DHT22;28622;43.716;20.668;2022-10-30T16:48:57;15.90;99.90
42989;DHT22;28622;43.716;20.668;2022-10-30T16:51:24;15.70;99.90
42989;DHT22;28622;43.716;20.668;2022-10-30T16:53:51;15.60;99.90
42989;DHT22;28622;43.716;20.668;2022-10-30T16:56:26;15.50;99.90
42989;DHT22;28622;43.716;20.668;2022-10-30T16:58:56;15.40;99.90
42989;DHT22;28622;43.716;20.668;2022-10-30T17:01:27;15.30;99.90
42989;DHT22;28622;43.716;20.668;2022-10-30T17:03:53;15.30;99.90
42989;DHT22;28622;43.716;20.668;2022-10-30T17:06:28;15.10;99.90
42989;DHT22;28622;43.716;20.668;2022-10-30T17:08:59;15.00;99.90
42989;DHT22;28622;43.716;20.668;2022-10-30T17:11:35;14.90;99.90
42989;DHT22;28622;43.716;20.668;2022-10-30T17:14:13;14.80;99.90
42989;DHT22;28622;43.716;20.668;2022-10-30T17:16:54;14.70;99.90
42989;DHT22;28622;43.716;20.668;2022-10-30T17:21:58;14.50;99.90
42989;DHT22;28622;43.716;20.668;2022-10-30T17:24:35;14.50;99.90
42989;DHT22;28622;43.716;20.668;2022-10-30T17:27:04;14.40;99.90
42989;DHT22;28622;43.716;20.668;2022-10-30T17:32:10;14.30;99.90
42989;DHT22;28622;43.716;20.668;2022-10-30T17:34:40;14.30;99.90
42989;DHT22;28622;43.716;20.668;2022-10-30T17:37:06;14.20;99.90
42989;DHT22;28622;43.716;20.668;2022-10-30T17:39:32;14.20;99.90
42989;DHT22;28622;43.716;20.668;2022-10-30T17:41:57;14.20;99.90
42989;DHT22;28622;43.716;20.668;2022-10-30T17:44:24;14.10;99.90
42989;DHT22;28622;43.716;20.668;2022-10-30T17:46:51;14.00;99.90
42989;DHT22;28622;43.716;20.668;2022-10-30T17:49:28;13.90;99.90
42989;DHT22;28622;43.716;20.668;2022-10-30T17:51:53;13.90;99.90
42989;DHT22;28622;43.716;20.668;2022-10-30T17:54:19;13.80;99.90
42989;DHT22;28622;43.716;20.668;2022-10-30T17:56:45;13.70;99.90
42989;DHT22;28622;43.716;20.668;2022-10-30T17:59:11;13.60;99.90
42989;DHT22;28622;43.716;20.668;2022-10-30T18:01:37;13.50;99.90
42989;DHT22;28622;43.716;20.668;2022-10-30T18:04:15;13.40;99.90
42989;DHT22;28622;43.716;20.668;2022-10-30T18:06:42;13.40;99.90
42989;DHT22;28622;43.716;20.668;2022-10-30T18:09:08;13.30;99.90
42989;DHT22;28622;43.716;20.668;2022-10-30T18:11:34;13.30;99.90
42989;DHT22;28622;43.716;20.668;2022-10-30T18:14:01;13.30;99.90
42989;DHT22;28622;43.716;20.668;2022-10-30T18:16:27;13.10;99.90
42989;DHT22;28622;43.716;20.668;2022-10-30T18:18:53;13.00;99.90
42989;DHT22;28622;43.716;20.668;2022-10-30T18:21:21;13.00;99.90
42989;DHT22;28622;43.716;20.668;2022-10-30T18:23:48;12.90;99.90
42989;DHT22;28622;43.716;20.668;2022-10-30T18:26:16;12.90;99.90
42989;DHT22;28622;43.716;20.668;2022-10-30T18:28:42;12.80;99.90
42989;DHT22;28622;43.716;20.668;2022-10-30T18:31:13;12.80;99.90
42989;DHT22;28622;43.716;20.668;2022-10-30T18:33:40;12.70;99.90